PROFILE

 METAR AND TAF INFORMATION
ADDS - METARS form results

(1845 UTC 10 April 2021)
http://aviationweather.gov/metar/data/
 
SBSN 101800Z 09008KT 9999 FEW020 31/25 Q1007
TAF SBSN 101500Z 1018/1118 09005KT 9999 SCT020 FEW023TCU TN24/1110Z TX29/1117Z PROB40 TEMPO 1100/1106 4000 TSRA BKN013 FEW020CB BECMG 1107/1109 10007KT BECMG 1114/1116 06005KT SCT020 RMK PGY 

 AIRPORT MAP

 RUNWAY INFORMATION
Runway 10 Runway length 7874 ft Runway width 148 ft
Runway elevation 0 ft Runway displaced threshold 0 ft Runway heading 0
Runway 28 Runway length 7874 ft Runway width 148 ft
Runway elevation 0 ft Runway displaced threshold 0 ft Runway heading 0

 AIRPORT FREQUENCIES
Type APP Name APP Frequency 119.3 MHZ
Type TWR Name TWR Frequency 118.1 MHZ

 AIRPORT NEAR NAVIGATION AIDS
Type VOR-DME Name Santarem Frequency 112300 KHZ
Type NDB Name Santarem Frequency 350 KHZ